2 de julho de 2022

Hora Código Clima Temp. Visibilidade Tecto Vento METAR/SPECI
9:20 da manhã
L
64 °F 0 mi - Var 000° 0 kt METAR ETNT 020720Z AUTO /////KT //// // ////// 18/11 Q1021 ///
8:20 da manhã
L
61 °F 0 mi - Var 000° 0 kt METAR ETNT 020620Z AUTO /////KT //// // ////// 16/12 Q1021 ///
7:20 da manhã
L
57 °F 0 mi - Var 000° 0 kt METAR ETNT 020520Z AUTO /////KT //// // ////// 14/11 Q1020 ///
6:20 da manhã
L
55 °F 0 mi - Var 000° 0 kt METAR ETNT 020420Z AUTO /////KT //// // ////// 13/10 Q1020 ///
5:20 da manhã
L
54 °F 0 mi - Var 000° 0 kt METAR ETNT 020320Z AUTO /////KT //// // ////// 12/10 Q1020 ///
4:20 da manhã
L
54 °F 0 mi - Var 000° 0 kt METAR ETNT 020220Z AUTO /////KT //// // ////// 12/10 Q1020 ///
3:20 da manhã
L
54 °F 0 mi - Var 000° 0 kt METAR ETNT 020120Z AUTO /////KT //// // ////// 12/11 Q1020 ///
2:20 da manhã
L
52 °F 0 mi - Var 000° 0 kt METAR ETNT 020020Z AUTO /////KT //// // ////// 11/11 Q1020 ///
1:20 da manhã
L
52 °F 0 mi - Var 000° 0 kt METAR ETNT 012320Z AUTO /////KT //// // ////// 11/10 Q1020 ///
12:20 da manhã
L
52 °F 0 mi - Var 000° 0 kt METAR ETNT 012220Z AUTO /////KT //// // ////// 11/10 Q1020 ///

1 de julho de 2022

Hora Código Clima Temp. Visibilidade Tecto Vento METAR/SPECI
11:20 da tarde
L
54 °F 0 mi - Var 000° 0 kt METAR ETNT 012120Z AUTO /////KT //// // ////// 12/11 Q1019 ///
10:20 da tarde
L
59 °F 0 mi - Var 000° 0 kt METAR ETNT 012020Z AUTO /////KT //// // ////// 15/11 Q1019 ///
9:20 da tarde
L
63 °F 0 mi - Var 000° 0 kt METAR ETNT 011920Z AUTO /////KT //// // ////// 17/11 Q1018 ///
8:20 da tarde
L
66 °F 0 mi - Var 000° 0 kt METAR ETNT 011820Z AUTO /////KT //// // ////// 19/10 Q1018 ///
7:20 da tarde
L
66 °F 0 mi - Var 000° 0 kt METAR ETNT 011720Z AUTO /////KT //// // ////// 19/10 Q1017 ///
6:20 da tarde
L
66 °F 0 mi - Var 000° 0 kt METAR ETNT 011620Z AUTO /////KT //// // ////// 19/13 Q1017 ///
5:20 da tarde
L
66 °F 0 mi - Var 000° 0 kt METAR ETNT 011520Z AUTO /////KT //// // ////// 19/12 Q1016 ///
4:20 da tarde
L
66 °F 0 mi - Var 000° 0 kt METAR ETNT 011420Z AUTO /////KT //// // ////// 19/13 Q1016 ///
3:20 da tarde
L
66 °F 0 mi - Var 000° 0 kt METAR ETNT 011320Z AUTO /////KT //// // ////// 19/12 Q1016 ///
2:20 da tarde
L
66 °F 0 mi - Var 000° 0 kt METAR ETNT 011220Z AUTO /////KT //// // ////// 19/13 Q1016 ///
1:20 da tarde
V
64 °F 6¼ mi+ 14.000 ft 220° 220° 6 kt METAR ETNT 011120Z 22006KT 9999 SCT020 BKN140 18/12 Q1015 BLACKBLU
12:20 da tarde
V
64 °F 6¼ mi+ 13.000 ft 210° 210° 9 kt METAR ETNT 011020Z 21009KT 9999 SCT020 BKN130 18/13 Q1015 BLACKBLU
11:20 da manhã
V
63 °F 6¼ mi+ 11.000 ft 230° 230° 8 kt METAR ETNT 010920Z 23008KT 9999 SCT017 BKN110 17/13 Q1015 BLACKBLU
10:20 da manhã
V
61 °F 6¼ mi+ 9.000 ft 230° 230° 8 kt METAR ETNT 010820Z 23008KT 9999 FEW014 SCT050 BKN090 16/13 Q1014 BLACKBLU
9:20 da manhã
V
61 °F 6¼ mi+ 9.000 ft 210° 210° 7 kt METAR ETNT 010720Z 21007KT 9999 FEW014 SCT050 BKN090 16/14 Q1014 BLACKBLU
8:20 da manhã
V
59 °F 6¼ mi+ 5.000 ft 210° 210° 9 kt METAR ETNT 010620Z 21009KT 9999 -RA FEW012 BKN050 BKN090 15/14 Q1014 BLACKBLU
7:20 da manhã
V
59 °F 6¼ mi+ 3.400 ft 210° 210° 8 kt METAR ETNT 010520Z 21008KT 9999 -RA FEW011 BKN034 BKN100 15/13 Q1013 BLACKBLU
6:20 da manhã
V
59 °F 6¼ mi+ 5.000 ft 230° 230° 8 kt METAR ETNT 010420Z 23008KT 9999 SCT015 BKN050 15/14 Q1012 BLACKBLU
5:20 da manhã
L
32 °F 0 mi - Var 000° 0 kt METAR ETNT 010320Z AUTO /////KT //// // ////// ///// Q//// ///
4:20 da manhã
L
32 °F 0 mi - Var 000° 0 kt METAR ETNT 010220Z AUTO /////KT //// // ////// ///// Q//// ///
3:20 da manhã
L
32 °F 0 mi - Var 000° 0 kt METAR ETNT 010120Z AUTO /////KT //// // ////// ///// Q//// ///
2:20 da manhã
L
32 °F 0 mi - Var 000° 0 kt METAR ETNT 010020Z AUTO /////KT //// // ////// ///// Q000/ ///
1:20 da manhã
L
32 °F 0 mi - Var 000° 0 kt METAR ETNT 302320Z AUTO /////KT //// // ////// ///// Q//// ///
12:20 da manhã
L
32 °F 0 mi - Var 000° 0 kt METAR ETNT 302220Z AUTO /////KT //// // ////// ///// Q//// ///

30 de junho de 2022

Hora Código Clima Temp. Visibilidade Tecto Vento METAR/SPECI
11:20 da tarde
L
70 °F 0 mi - Var 000° 0 kt METAR ETNT 302120Z AUTO /////KT //// // ////// 21/15 Q1010 ///
10:20 da tarde
L
72 °F 0 mi - Var 000° 0 kt METAR ETNT 302020Z AUTO /////KT //// // ////// 22/17 Q1008 ///
9:20 da tarde
L
73 °F 0 mi - Var 000° 0 kt METAR ETNT 301920Z AUTO /////KT //// // ////// 23/17 Q1009 ///
8:20 da tarde
L
77 °F 0 mi - Var 000° 0 kt METAR ETNT 301820Z AUTO /////KT //// // ////// 25/17 Q1008 ///
7:20 da tarde
V
79 °F 6¼ mi+ - 100° 100° 5 kt METAR ETNT 301720Z 10005KT 9999 FEW150 SCT310 26/17 Q1009 BLACKBLU+
6:20 da tarde
V
79 °F 6¼ mi+ - 080° 080° 5 kt METAR ETNT 301620Z 08005KT 9999 FEW050 SCT100 26/16 Q1010 BLACKBLU+
5:20 da tarde
V
81 °F 6¼ mi+ - 090° 090° 5 kt METAR ETNT 301520Z 09005KT 9999 FEW050 SCT310 27/16 Q1010 BLACKBLU+
4:20 da tarde
V
82 °F 6¼ mi+ - 100° 100° 5 kt METAR ETNT 301420Z 10005KT 9999 FEW048 SCT310 28/15 Q1010 BLACKBLU+
3:20 da tarde
V
82 °F 6¼ mi+ - 120° 120° 5 kt METAR ETNT 301320Z 12005KT 9999 FEW048 28/16 Q1011 BLACKBLU+
2:20 da tarde
V
81 °F 6¼ mi+ - 140° 140° 6 kt METAR ETNT 301220Z 14006KT 9999 FEW048 27/15 Q1011 BLACKBLU+
1:20 da tarde
V
79 °F 6¼ mi+ - 120° 120° 7 kt METAR ETNT 301120Z 12007KT 9999 FEW052 26/14 Q1011 BLACKBLU+
12:20 da tarde
V
79 °F 6¼ mi+ - 110° 110° 9 kt METAR ETNT 301020Z 11009KT 9999 FEW044 26/14 Q1012 BLACKBLU+
11:20 da manhã
V
77 °F 6¼ mi+ - 110° 110° 10 kt METAR ETNT 300920Z 11010KT 9999 FEW044 25/14 Q1012 BLACKBLU+
Dados mais antigos

Baixe nosso aplicativo

Fácil acesso a todas as condições meteorológicas da aviação no seu celular e no seu tablet.
Com muitas características não disponíveis no site, como suporte offline e uma lista pessoal de aeroportos.

Nós e terceiros acompanhamos seu comportamento na internet em nosso site com cookies. Se você continuar, nós assumimos que você concorda com nossa política de cookies. Saiba mais